Time;durP1;ratioP1;P1;durP2;ratioP2;P2;SDS_P1;SDS_P2;PMS_P1;PMS_P2;Temp;Humidity;BMP_temperature;BMP_pressure;BME280_temperature;BME280_humidity;BME280_pressure;Samples;Min_cycle;Max_cycle;Signal;HPM_P1;HPM_P2
2022/08/08 00:00:10;;;;;;;1.02;1.00;;;14.10;84.70;;;;;;5094840;28;20020;-78
2022/08/08 00:03:03;;;;;;;1.85;1.02;;;14.10;84.30;;;;;;5096127;28;20028;-74
2022/08/08 00:05:57;;;;;;;3.65;1.35;;;14.10;84.50;;;;;;5096141;28;20024;-78
2022/08/08 00:08:32;;;;;;;2.80;1.40;;;14.10;85.00;;;;;;5088712;28;20036;-75
2022/08/08 00:11:01;;;;;;;1.15;1.10;;;14.10;85.20;;;;;;5095889;28;20035;-78
2022/08/08 00:13:45;;;;;;;1.70;1.30;;;14.10;85.30;;;;;;5095652;28;20040;-74
2022/08/08 00:16:34;;;;;;;1.52;1.23;;;14.10;85.10;;;;;;5095617;28;20028;-77
2022/08/08 00:19:19;;;;;;;1.10;1.08;;;14.10;85.60;;;;;;5094362;28;20028;-77
2022/08/08 00:21:59;;;;;;;2.30;1.40;;;14.10;85.80;;;;;;5095496;28;20031;-77
2022/08/08 00:24:54;;;;;;;4.35;1.30;;;14.10;85.70;;;;;;5095686;28;20020;-74
2022/08/08 00:27:20;;;;;;;2.55;1.10;;;14.10;85.60;;;;;;5094201;28;20063;-74
2022/08/08 00:29:51;;;;;;;1.73;1.30;;;14.00;85.70;;;;;;5095575;28;20051;-77
2022/08/08 00:32:23;;;;;;;2.35;1.10;;;14.00;86.10;;;;;;5095222;28;20032;-76
2022/08/08 00:35:10;;;;;;;2.28;1.30;;;14.00;86.70;;;;;;5095353;28;20024;-74
2022/08/08 00:37:57;;;;;;;2.45;1.30;;;14.00;87.20;;;;;;5094223;28;20016;-74
2022/08/08 00:40:29;;;;;;;1.88;1.50;;;14.00;87.60;;;;;;5094863;28;20031;-74
2022/08/08 00:43:32;;;;;;;1.50;1.40;;;13.90;88.20;;;;;;5094991;28;20564;-74
2022/08/08 00:46:20;;;;;;;2.70;1.20;;;13.90;89.00;;;;;;5094981;28;20024;-78
2022/08/08 00:49:07;;;;;;;1.73;1.42;;;13.90;89.40;;;;;;5094931;28;20055;-74
2022/08/08 00:51:44;;;;;;;1.77;1.17;;;13.80;89.80;;;;;;5095050;28;20020;-77
2022/08/08 00:54:28;;;;;;;3.63;1.42;;;13.80;89.50;;;;;;5093677;28;20404;-77
2022/08/08 00:57:18;;;;;;;4.72;1.33;;;13.80;90.00;;;;;;5094989;28;20384;-78
2022/08/08 01:00:21;;;;;;;2.83;1.67;;;13.80;90.00;;;;;;5095078;28;20055;-77
2022/08/08 01:03:08;;;;;;;1.77;1.35;;;13.80;90.00;;;;;;5072361;28;20039;-74
2022/08/08 01:05:37;;;;;;;4.15;1.27;;;13.80;89.80;;;;;;5093843;28;20038;-78
2022/08/08 01:08:40;;;;;;;1.85;1.45;;;13.90;89.70;;;;;;5093437;28;20485;-74
2022/08/08 01:11:23;;;;;;;;;;;13.90;89.20;;;;;;5095237;28;20477;-74
2022/08/08 01:14:23;;;;;;;2.63;1.80;;;13.90;88.70;;;;;;5093402;28;19912;-74
2022/08/08 01:17:16;;;;;;;1.25;1.15;;;13.90;88.50;;;;;;5093082;28;20031;-74
2022/08/08 01:20:26;;;;;;;1.92;1.70;;;13.90;88.90;;;;;;5093211;28;20020;-74
2022/08/08 01:23:10;;;;;;;2.20;1.40;;;13.90;89.30;;;;;;5092894;28;20024;-74
2022/08/08 01:25:59;;;;;;;1.85;1.30;;;13.90;89.10;;;;;;5094620;28;20103;-73
2022/08/08 01:28:53;;;;;;;1.83;1.35;;;13.90;88.60;;;;;;5093095;28;20024;-73
2022/08/08 01:31:30;;;;;;;2.90;1.65;;;13.90;88.50;;;;;;5092986;28;20031;-77
2022/08/08 01:34:21;;;;;;;2.08;1.50;;;13.90;88.10;;;;;;5094048;28;20020;-74
2022/08/08 01:36:49;;;;;;;3.25;1.40;;;13.90;88.20;;;;;;5094025;28;20024;-74
2022/08/08 01:39:20;;;;;;;1.33;1.23;;;13.90;88.00;;;;;;5094307;28;20020;-74
2022/08/08 01:42:05;;;;;;;2.97;1.60;;;13.80;88.00;;;;;;5094030;28;20130;-77
2022/08/08 01:44:58;;;;;;;2.65;1.50;;;13.80;88.00;;;;;;5092889;28;20020;-76
2022/08/08 01:47:57;;;;;;;1.63;1.52;;;13.80;88.40;;;;;;5092544;28;20031;-76
2022/08/08 01:50:38;;;;;;;2.67;1.40;;;13.80;89.70;;;;;;5093912;28;20032;-74
2022/08/08 01:53:27;;;;;;;1.42;1.33;;;13.70;89.80;;;;;;5092025;28;20028;-77
2022/08/08 01:55:59;;;;;;;1.48;1.33;;;13.70;89.70;;;;;;5093692;28;20035;-77
2022/08/08 01:58:52;;;;;;;1.20;1.10;;;13.60;91.10;;;;;;5093829;28;20531;-74
2022/08/08 02:01:21;;;;;;;;;;;13.60;93.20;;;;;;5094289;28;20024;-74
2022/08/08 02:04:06;;;;;;;1.45;1.30;;;13.60;96.10;;;;;;5093607;28;19904;-77
2022/08/08 02:06:56;;;;;;;2.92;1.40;;;13.60;98.00;;;;;;5093892;28;20496;-77
2022/08/08 02:09:49;;;;;;;3.20;1.65;;;13.50;97.70;;;;;;5093644;28;20152;-77
2022/08/08 02:12:42;;;;;;;7.45;2.08;;;13.50;99.20;;;;;;5093388;28;20036;-77
2022/08/08 02:15:28;;;;;;;1.52;1.40;;;13.40;99.30;;;;;;5091020;28;20077;-78
2022/08/08 02:18:21;;;;;;;4.20;1.73;;;13.40;99.90;;;;;;5093491;28;20099;-74
2022/08/08 02:24:26;;;;;;;1.73;1.50;;;13.40;99.90;;;;;;5071083;28;20405;-73
2022/08/08 02:26:55;;;;;;;;;;;13.30;99.90;;;;;;5093799;28;20024;-74
2022/08/08 02:29:32;;;;;;;2.22;1.30;;;13.40;99.90;;;;;;5093417;28;19904;-77
2022/08/08 02:32:35;;;;;;;1.17;1.10;;;13.40;98.50;;;;;;5091715;28;20046;-74
2022/08/08 02:35:00;;;;;;;2.47;1.70;;;13.50;97.50;;;;;;5092065;28;20478;-74
2022/08/08 02:37:39;;;;;;;1.50;1.40;;;13.50;96.50;;;;;;5093194;28;20043;-74
2022/08/08 02:40:22;;;;;;;1.52;1.40;;;13.50;96.30;;;;;;5093306;28;20461;-74
2022/08/08 02:43:32;;;;;;;1.20;1.10;;;13.60;95.90;;;;;;5091998;28;20027;-74
2022/08/08 02:46:23;;;;;;;3.72;1.20;;;13.70;95.10;;;;;;5087748;28;20064;-77
2022/08/08 02:49:07;;;;;;;2.15;1.10;;;13.70;95.00;;;;;;5093212;28;20119;-76
2022/08/08 02:51:39;;;;;;;3.80;1.35;;;13.80;94.70;;;;;;5093186;28;20024;-77
2022/08/08 02:54:40;;;;;;;1.50;1.40;;;13.80;93.20;;;;;;5091455;28;20493;-77
2022/08/08 02:57:42;;;;;;;2.30;1.08;;;13.90;93.20;;;;;;5085873;28;20067;-77
2022/08/08 03:00:14;;;;;;;1.45;1.25;;;14.00;91.80;;;;;;5091796;28;20024;-77
2022/08/08 03:03:47;;;;;;;2.17;1.63;;;13.90;91.60;;;;;;5093258;28;20064;-75
2022/08/08 03:06:40;;;;;;;4.40;1.67;;;14.00;91.50;;;;;;5071842;28;20489;-77
2022/08/08 03:09:42;;;;;;;3.33;1.50;;;14.00;92.50;;;;;;5057903;28;20409;-77
2022/08/08 03:12:32;;;;;;;2.63;1.40;;;13.90;92.40;;;;;;5091267;28;20443;-77
2022/08/08 03:15:24;;;;;;;3.65;1.77;;;14.00;92.90;;;;;;5096882;28;20065;-74
2022/08/08 03:18:12;;;;;;;3.08;1.55;;;14.00;93.00;;;;;;5095429;28;20028;-74
2022/08/08 03:20:46;;;;;;;2.15;1.17;;;14.00;93.90;;;;;;5097062;28;20469;-74
2022/08/08 03:23:12;;;;;;;1.92;1.30;;;14.00;94.10;;;;;;5096665;28;20513;-77
2022/08/08 03:25:38;;;;;;;2.03;1.40;;;14.00;93.40;;;;;;5096851;28;20021;-77
2022/08/08 03:28:09;;;;;;;3.42;1.50;;;14.00;93.50;;;;;;5095208;28;20027;-75
2022/08/08 03:30:34;;;;;;;6.43;2.42;;;14.00;92.90;;;;;;5096881;28;20024;-74
2022/08/08 03:33:18;;;;;;;2.45;1.52;;;14.00;92.70;;;;;;5096409;28;20036;-74
2022/08/08 03:35:49;;;;;;;2.97;1.55;;;14.00;93.00;;;;;;5096690;28;20052;-77
2022/08/08 03:38:18;;;;;;;4.63;1.23;;;14.10;91.90;;;;;;5096284;28;20036;-77
2022/08/08 03:40:52;;;;;;;2.08;1.15;;;14.10;92.20;;;;;;5096376;28;20036;-74
2022/08/08 03:43:18;;;;;;;6.35;2.35;;;14.10;92.30;;;;;;5096283;28;20118;-77
2022/08/08 03:45:44;;;;;;;2.78;1.45;;;14.10;91.90;;;;;;5095255;28;20024;-77
2022/08/08 03:48:10;;;;;;;1.33;1.15;;;14.10;91.30;;;;;;5095950;28;20051;-72
2022/08/08 03:50:41;;;;;;;1.70;1.38;;;14.20;91.40;;;;;;5096360;28;20021;-74
2022/08/08 03:53:12;;;;;;;3.05;1.27;;;14.20;91.30;;;;;;5095806;28;20530;-77
2022/08/08 03:55:40;;;;;;;2.08;1.30;;;14.20;91.80;;;;;;5096362;28;20020;-74
2022/08/08 03:58:07;;;;;;;3.30;1.30;;;14.20;90.60;;;;;;5094828;28;20165;-74
2022/08/08 04:00:33;;;;;;;4.00;1.27;;;14.30;91.80;;;;;;5094879;28;20032;-77
2022/08/08 04:03:05;;;;;;;7.07;1.60;;;14.20;91.90;;;;;;5094476;28;20051;-74
2022/08/08 04:05:36;;;;;;;2.97;1.20;;;14.30;91.90;;;;;;5096136;28;20035;-75
2022/08/08 04:08:04;;;;;;;2.05;1.52;;;14.30;91.80;;;;;;5094564;28;20290;-74
2022/08/08 04:10:34;;;;;;;1.42;1.30;;;14.30;92.30;;;;;;5095747;28;20427;-74
2022/08/08 04:13:01;;;;;;;2.97;1.25;;;14.30;92.80;;;;;;5095703;28;20036;-74
2022/08/08 04:15:26;;;;;;;1.77;1.52;;;14.30;94.20;;;;;;5094799;28;20055;-74
2022/08/08 04:17:52;;;;;;;2.22;1.20;;;14.30;93.80;;;;;;5095145;28;20052;-78
2022/08/08 04:20:18;;;;;;;2.70;1.50;;;14.30;92.40;;;;;;5095451;28;20058;-74
2022/08/08 04:22:44;;;;;;;2.88;1.20;;;14.30;93.30;;;;;;5095548;28;20473;-75
2022/08/08 04:25:10;;;;;;;6.43;1.33;;;14.30;93.50;;;;;;5095513;28;20058;-77
2022/08/08 04:27:36;;;;;;;1.38;1.27;;;14.30;93.30;;;;;;5095725;28;20529;-77
2022/08/08 04:30:04;;;;;;;1.80;1.20;;;14.30;93.40;;;;;;5095432;28;20060;-75
2022/08/08 04:32:30;;;;;;;1.90;1.20;;;14.30;93.50;;;;;;5095369;28;20111;-77
2022/08/08 04:34:56;;;;;;;5.82;2.13;;;14.30;93.90;;;;;;5094028;28;20059;-77
2022/08/08 04:37:21;;;;;;;2.33;1.80;;;14.30;94.50;;;;;;5094573;28;20032;-79
2022/08/08 04:39:47;;;;;;;3.15;1.52;;;14.30;94.90;;;;;;5093961;28;20545;-75
2022/08/08 04:42:13;;;;;;;2.65;1.40;;;14.30;95.00;;;;;;5093907;28;20029;-74
2022/08/08 04:44:38;;;;;;;1.88;1.50;;;14.30;94.40;;;;;;5095210;28;20024;-75
2022/08/08 04:47:04;;;;;;;1.67;1.10;;;14.30;94.80;;;;;;5093880;28;20119;-74
2022/08/08 04:49:30;;;;;;;6.45;1.90;;;14.40;95.20;;;;;;5094962;28;20048;-78
2022/08/08 04:51:56;;;;;;;5.20;1.60;;;14.40;94.50;;;;;;5095282;28;20040;-78
2022/08/08 04:54:21;;;;;;;2.58;1.48;;;14.40;94.10;;;;;;5094933;28;20035;-74
2022/08/08 04:56:47;;;;;;;2.72;1.13;;;14.40;93.90;;;;;;5094982;28;20028;-73
2022/08/08 04:59:12;;;;;;;4.03;1.27;;;14.50;92.90;;;;;;5093609;28;20076;-78
2022/08/08 05:01:38;;;;;;;3.35;1.50;;;14.60;94.30;;;;;;5094881;28;20025;-78
2022/08/08 05:04:04;;;;;;;5.93;1.58;;;14.60;93.30;;;;;;5093866;28;20058;-73
2022/08/08 05:06:29;;;;;;;1.67;1.58;;;14.60;93.70;;;;;;5093001;28;20031;-74
2022/08/08 05:08:56;;;;;;;1.80;1.63;;;14.70;95.30;;;;;;5093249;28;20493;-79
2022/08/08 05:11:22;;;;;;;2.25;1.40;;;14.70;94.20;;;;;;5092978;28;20081;-74
2022/08/08 05:13:47;;;;;;;2.45;1.30;;;14.70;94.80;;;;;;5093130;28;20397;-74
2022/08/08 05:16:13;;;;;;;4.93;1.67;;;14.80;94.60;;;;;;5092128;28;20629;-74
2022/08/08 05:18:39;;;;;;;2.60;1.35;;;14.80;93.90;;;;;;5090657;28;20020;-78
2022/08/08 05:21:07;;;;;;;4.00;1.60;;;14.90;92.70;;;;;;5090663;28;20385;-74
2022/08/08 05:23:33;;;;;;;3.53;1.20;;;15.00;92.90;;;;;;5091268;28;20696;-78
2022/08/08 05:25:59;;;;;;;6.60;1.45;;;15.20;90.70;;;;;;5092673;28;20142;-78
2022/08/08 05:28:25;;;;;;;4.68;1.85;;;15.40;90.60;;;;;;5092849;28;20478;-74
2022/08/08 05:30:51;;;;;;;1.77;1.52;;;15.70;88.30;;;;;;5093783;28;20012;-73
2022/08/08 05:33:16;;;;;;;2.80;1.30;;;15.80;85.10;;;;;;5093484;28;20035;-78
2022/08/08 05:35:43;;;;;;;1.67;1.38;;;15.90;83.10;;;;;;5093758;28;20055;-78
2022/08/08 05:38:14;;;;;;;3.22;1.05;;;16.00;80.60;;;;;;5093497;28;20385;-79
2022/08/08 05:40:48;;;;;;;3.17;1.00;;;16.00;81.00;;;;;;5090909;28;20500;-78
2022/08/08 05:43:29;;;;;;;1.27;0.90;;;16.10;80.00;;;;;;5092657;28;20056;-74
2022/08/08 05:46:01;;;;;;;1.83;1.30;;;16.30;79.30;;;;;;5093047;28;20016;-79
2022/08/08 05:48:27;;;;;;;4.60;1.10;;;16.50;78.10;;;;;;5092642;28;20409;-75
2022/08/08 05:50:53;;;;;;;2.58;1.10;;;16.60;76.10;;;;;;5093873;28;20396;-79
2022/08/08 05:53:24;;;;;;;1.73;1.20;;;16.80;74.10;;;;;;5094925;28;20032;-79
2022/08/08 05:55:55;;;;;;;3.17;1.00;;;16.90;74.90;;;;;;5094194;28;20027;-79
2022/08/08 05:58:32;;;;;;;4.53;1.50;;;17.00;73.30;;;;;;5094143;28;20024;-76
2022/08/08 06:01:01;;;;;;;2.85;1.58;;;17.00;74.40;;;;;;5093842;28;20016;-80
2022/08/08 06:03:29;;;;;;;2.65;1.25;;;17.00;73.70;;;;;;5093511;28;20020;-75
2022/08/08 06:06:06;;;;;;;2.17;1.25;;;17.10;74.60;;;;;;5091763;28;20084;-75
2022/08/08 06:08:48;;;;;;;2.88;1.55;;;17.20;72.90;;;;;;5091529;28;20034;-80
2022/08/08 06:11:14;;;;;;;5.28;1.58;;;17.20;72.40;;;;;;5090196;28;20020;-75
2022/08/08 06:13:40;;;;;;;7.03;3.58;;;17.30;71.70;;;;;;5090548;28;20082;-76
2022/08/08 06:16:06;;;;;;;2.97;1.50;;;17.40;72.80;;;;;;5089848;28;20012;-76
2022/08/08 06:18:32;;;;;;;2.60;1.23;;;17.50;73.10;;;;;;5092163;28;20439;-80
2022/08/08 06:20:59;;;;;;;2.55;1.20;;;17.60;71.20;;;;;;5092485;28;20559;-79
2022/08/08 06:23:26;;;;;;;2.08;1.10;;;17.80;69.70;;;;;;5092110;28;20028;-76
2022/08/08 06:26:02;;;;;;;2.30;1.05;;;17.90;69.60;;;;;;5092496;28;20020;-80
2022/08/08 06:28:31;;;;;;;2.85;1.20;;;18.20;69.00;;;;;;5093368;28;20103;-80
2022/08/08 06:30:59;;;;;;;3.30;1.02;;;18.20;67.00;;;;;;5093612;28;20020;-76
2022/08/08 06:33:35;;;;;;;2.33;1.08;;;18.30;66.50;;;;;;5093341;28;20032;-76
2022/08/08 06:36:03;;;;;;;4.88;1.15;;;18.20;65.90;;;;;;5093395;28;20016;-76
2022/08/08 06:38:34;;;;;;;2.38;1.05;;;18.10;66.30;;;;;;5093439;28;20022;-76
2022/08/08 06:41:06;;;;;;;1.15;0.95;;;18.10;66.90;;;;;;5091815;28;20054;-76
2022/08/08 06:43:37;;;;;;;2.80;1.10;;;18.10;67.70;;;;;;5092423;28;20462;-80
2022/08/08 06:46:04;;;;;;;2.72;1.13;;;18.20;68.30;;;;;;5093256;28;20484;-80
2022/08/08 06:48:30;;;;;;;7.25;0.98;;;18.20;68.00;;;;;;5093085;28;20051;-79
2022/08/08 06:50:57;;;;;;;2.05;1.20;;;18.30;68.50;;;;;;5093235;28;20393;-76
2022/08/08 06:53:24;;;;;;;2.40;1.10;;;18.40;68.20;;;;;;5093000;28;20505;-80
2022/08/08 06:55:50;;;;;;;1.60;0.90;;;18.60;68.00;;;;;;5091865;28;20044;-76
2022/08/08 06:58:16;;;;;;;3.00;1.45;;;18.80;67.50;;;;;;5093134;28;20448;-76
2022/08/08 07:00:47;;;;;;;3.78;1.23;;;18.90;66.00;;;;;;5093173;28;20063;-77
2022/08/08 07:03:28;;;;;;;2.20;1.10;;;19.10;66.40;;;;;;5093201;28;20588;-76
2022/08/08 07:05:56;;;;;;;2.38;1.02;;;19.00;64.30;;;;;;5093180;28;20059;-76
2022/08/08 07:08:31;;;;;;;4.35;1.45;;;19.10;64.60;;;;;;5093071;28;20016;-76
2022/08/08 07:11:01;;;;;;;3.08;1.05;;;19.10;64.10;;;;;;5093160;28;20024;-77
2022/08/08 07:13:38;;;;;;;2.30;1.10;;;19.10;64.10;;;;;;5092925;28;20437;-77
2022/08/08 07:16:15;;;;;;;3.67;1.20;;;19.20;64.90;;;;;;5092961;28;20457;-81
2022/08/08 07:19:06;;;;;;;3.42;1.25;;;19.30;64.50;;;;;;5091855;28;20012;-77
2022/08/08 07:21:54;;;;;;;2.55;1.00;;;19.30;62.80;;;;;;5088375;28;20107;-77
2022/08/08 07:24:43;;;;;;;2.70;1.10;;;19.50;62.90;;;;;;5072799;28;20500;-81
2022/08/08 07:27:11;;;;;;;2.20;0.90;;;19.50;61.70;;;;;;5072710;28;20489;-77
2022/08/08 07:29:37;;;;;;;3.88;1.30;;;19.70;61.20;;;;;;5072728;28;20475;-77
2022/08/08 07:32:05;;;;;;;2.08;0.90;;;19.80;61.50;;;;;;5072487;28;20174;-81
2022/08/08 07:34:32;;;;;;;3.80;1.55;;;20.10;62.30;;;;;;5071211;28;20055;-81
2022/08/08 07:37:01;;;;;;;2.00;0.90;;;20.20;61.30;;;;;;5071243;28;20035;-81
2022/08/08 07:39:29;;;;;;;2.03;0.90;;;20.30;59.60;;;;;;5071554;28;20430;-81
2022/08/08 07:41:59;;;;;;;2.22;0.93;;;20.40;59.40;;;;;;5091331;28;20501;-76
2022/08/08 07:44:25;;;;;;;2.75;0.93;;;20.40;58.60;;;;;;5092726;28;20020;-77
2022/08/08 07:46:51;;;;;;;2.13;0.95;;;20.50;58.70;;;;;;5092777;28;20521;-76
2022/08/08 07:49:17;;;;;;;1.27;0.82;;;20.50;57.70;;;;;;5092771;28;20124;-77
2022/08/08 07:51:42;;;;;;;1.83;1.23;;;20.50;57.40;;;;;;5091536;28;20481;-77
2022/08/08 07:54:35;;;;;;;5.57;1.20;;;20.40;57.20;;;;;;5096437;28;20031;-82
2022/08/08 07:57:07;;;;;;;;;;;20.50;57.40;;;;;;5095455;28;20028;-82
2022/08/08 07:59:36;;;;;;;2.38;1.02;;;20.70;57.10;;;;;;5095081;28;19911;-76
2022/08/08 08:02:05;;;;;;;1.67;0.80;;;20.90;57.50;;;;;;5096134;28;20027;-82
2022/08/08 08:04:42;;;;;;;1.88;1.20;;;20.90;56.70;;;;;;5094863;28;20104;-82
2022/08/08 08:07:09;;;;;;;4.55;0.90;;;21.00;56.80;;;;;;5096216;28;20044;-82
2022/08/08 08:09:39;;;;;;;2.67;0.93;;;20.90;55.80;;;;;;5096117;28;20020;-82
2022/08/08 08:12:08;;;;;;;2.47;0.98;;;21.00;55.80;;;;;;5094477;28;20119;-77
2022/08/08 08:14:52;;;;;;;1.73;0.90;;;21.00;55.60;;;;;;5096053;28;20021;-77
2022/08/08 08:17:19;;;;;;;2.13;0.80;;;21.00;55.20;;;;;;5095939;28;20024;-81
2022/08/08 08:19:47;;;;;;;2.75;1.05;;;20.90;54.40;;;;;;5094675;28;20055;-82
2022/08/08 08:22:14;;;;;;;1.95;1.08;;;20.80;54.60;;;;;;5095710;28;20103;-81
2022/08/08 08:24:41;;;;;;;3.95;0.98;;;21.00;55.80;;;;;;5094424;28;20024;-76
2022/08/08 08:27:06;;;;;;;1.30;1.00;;;21.10;55.60;;;;;;5095902;28;20423;-76
2022/08/08 08:29:32;;;;;;;1.25;0.98;;;21.10;54.90;;;;;;5095925;28;20024;-83
2022/08/08 08:31:58;;;;;;;1.00;0.85;;;21.20;54.70;;;;;;5095475;28;20039;-77
2022/08/08 08:34:24;;;;;;;1.80;0.95;;;21.30;54.70;;;;;;5095547;28;20385;-80
2022/08/08 08:36:50;;;;;;;1.55;1.02;;;21.30;54.20;;;;;;5095693;28;20024;-82
2022/08/08 08:39:15;;;;;;;1.67;0.90;;;21.40;53.90;;;;;;5095381;28;20024;-81
2022/08/08 08:41:42;;;;;;;4.18;1.38;;;21.20;54.20;;;;;;5095476;28;20024;-77
2022/08/08 08:44:09;;;;;;;2.63;0.77;;;21.20;53.40;;;;;;5095128;28;20077;-77
2022/08/08 08:46:36;;;;;;;2.17;0.70;;;21.20;53.60;;;;;;5095423;28;20030;-82
2022/08/08 08:49:02;;;;;;;1.55;0.98;;;21.30;52.80;;;;;;5093756;28;20048;-77
2022/08/08 08:51:30;;;;;;;2.42;0.88;;;21.60;53.20;;;;;;5095469;28;20028;-82
2022/08/08 08:54:00;;;;;;;2.85;1.00;;;21.60;52.80;;;;;;5074660;28;20037;-76
2022/08/08 08:56:27;;;;;;;2.35;0.90;;;21.80;54.20;;;;;;5075207;28;20024;-76
2022/08/08 08:58:54;;;;;;;2.90;0.75;;;21.90;53.00;;;;;;5074842;28;20027;-82
2022/08/08 09:01:23;;;;;;;2.30;1.27;;;21.90;52.90;;;;;;5073587;28;20020;-76
2022/08/08 09:03:50;;;;;;;2.83;1.63;;;21.80;53.70;;;;;;5074607;28;20029;-76
2022/08/08 09:06:27;;;;;;;2.92;1.88;;;22.00;52.50;;;;;;5074687;28;20482;-82
2022/08/08 09:09:21;;;;;;;4.65;1.73;;;22.20;52.50;;;;;;5073211;28;20070;-77
2022/08/08 09:11:47;;;;;;;3.63;1.00;;;22.10;52.70;;;;;;5071842;28;20033;-76
2022/08/08 09:14:14;;;;;;;0.85;0.70;;;22.40;53.00;;;;;;5074313;28;20032;-82
2022/08/08 09:16:39;;;;;;;4.03;1.10;;;22.00;51.50;;;;;;5073267;28;20490;-77
2022/08/08 09:19:05;;;;;;;2.63;0.88;;;21.60;51.90;;;;;;5074407;28;20028;-77
2022/08/08 09:21:33;;;;;;;3.67;0.70;;;21.40;52.20;;;;;;5073214;28;20043;-77
2022/08/08 09:23:59;;;;;;;3.25;1.33;;;21.50;52.60;;;;;;5074191;28;20367;-82
2022/08/08 09:26:28;;;;;;;2.10;1.13;;;21.60;52.30;;;;;;5074275;28;20043;-77
2022/08/08 09:28:57;;;;;;;1.10;1.10;;;21.50;52.00;;;;;;5074386;28;20040;-77
2022/08/08 09:31:48;;;;;;;0.85;0.80;;;21.50;51.90;;;;;;5074132;28;20047;-83
2022/08/08 09:34:17;;;;;;;1.40;1.00;;;21.70;52.40;;;;;;5073788;28;20090;-82
2022/08/08 09:36:45;;;;;;;1.15;0.80;;;21.50;51.70;;;;;;5074122;28;20058;-77
2022/08/08 09:39:11;;;;;;;1.27;0.70;;;21.70;52.20;;;;;;5072779;28;20024;-83
2022/08/08 09:41:40;;;;;;;2.65;1.48;;;22.10;52.10;;;;;;5092991;28;20027;-77
2022/08/08 09:44:18;;;;;;;2.13;1.00;;;22.40;51.80;;;;;;5093973;28;20119;-77
2022/08/08 09:46:48;;;;;;;3.88;1.20;;;22.50;51.80;;;;;;5094394;28;20024;-77
2022/08/08 09:49:17;;;;;;;4.68;1.02;;;22.60;52.00;;;;;;5092831;28;20051;-77
2022/08/08 09:51:49;;;;;;;1.52;0.70;;;23.00;51.10;;;;;;5094038;28;20066;-76
2022/08/08 09:54:16;;;;;;;;;;;23.00;49.40;;;;;;5094167;28;20043;-83
2022/08/08 09:56:47;;;;;;;1.65;0.70;;;23.30;49.40;;;;;;5092918;28;19912;-77
2022/08/08 09:59:22;;;;;;;1.23;0.65;;;23.30;48.60;;;;;;5093927;28;20023;-83
2022/08/08 10:01:52;;;;;;;1.00;0.90;;;23.40;48.30;;;;;;5093896;28;20016;-77
2022/08/08 10:04:21;;;;;;;2.80;0.90;;;23.20;47.90;;;;;;5093623;28;20028;-77
2022/08/08 10:06:47;;;;;;;1.23;0.80;;;22.90;47.20;;;;;;5094032;28;20024;-83
2022/08/08 10:09:13;;;;;;;0.80;0.80;;;22.80;48.60;;;;;;5092428;28;20024;-78
2022/08/08 10:11:46;;;;;;;2.30;0.90;;;22.90;48.90;;;;;;5092448;28;20103;-82
2022/08/08 10:14:12;;;;;;;2.65;0.90;;;22.90;49.20;;;;;;5093388;28;20477;-76
2022/08/08 10:16:40;;;;;;;1.02;0.82;;;22.50;50.20;;;;;;5093409;28;20024;-77
2022/08/08 10:19:08;;;;;;;2.65;1.00;;;22.40;50.90;;;;;;5093524;28;20020;-82
2022/08/08 10:21:35;;;;;;;1.75;1.02;;;22.20;51.10;;;;;;5092600;28;20030;-83
2022/08/08 10:24:10;;;;;;;0.75;0.70;;;22.00;51.40;;;;;;5092056;28;20073;-83
2022/08/08 10:26:57;;;;;;;2.10;1.15;;;21.70;51.50;;;;;;5093850;28;20427;-83
2022/08/08 10:29:37;;;;;;;2.83;1.25;;;21.60;51.90;;;;;;5092230;28;20024;-83
2022/08/08 10:34:58;;;;;;;4.65;1.10;;;21.90;52.20;;;;;;5093518;28;20040;-76
2022/08/08 10:37:26;;;;;;;5.03;1.23;;;22.30;52.20;;;;;;5093539;28;20020;-77
2022/08/08 10:39:57;;;;;;;3.38;1.17;;;22.50;51.80;;;;;;5091978;28;20027;-77
2022/08/08 10:42:30;;;;;;;3.17;0.98;;;22.60;52.30;;;;;;5093359;28;20393;-77
2022/08/08 10:45:01;;;;;;;1.35;0.70;;;22.50;50.20;;;;;;5093302;28;20020;-77
2022/08/08 10:47:27;;;;;;;2.00;1.08;;;22.50;50.00;;;;;;5091918;28;20469;-77
2022/08/08 10:49:58;;;;;;;4.05;1.15;;;22.50;50.40;;;;;;5091957;28;20028;-77
2022/08/08 10:52:34;;;;;;;1.88;1.10;;;22.40;49.50;;;;;;5092077;28;20032;-77
2022/08/08 10:55:07;;;;;;;1.85;0.70;;;22.50;48.70;;;;;;5091716;28;20482;-77
2022/08/08 10:57:37;;;;;;;2.63;1.17;;;22.70;48.20;;;;;;5093371;28;20027;-84
2022/08/08 11:00:04;;;;;;;2.45;1.10;;;22.90;48.80;;;;;;5093201;28;20044;-83
2022/08/08 11:02:31;;;;;;;3.03;1.33;;;23.20;48.70;;;;;;5093190;28;20020;-81
2022/08/08 11:04:59;;;;;;;5.20;1.13;;;23.00;48.20;;;;;;5093018;28;20423;-77
2022/08/08 11:07:26;;;;;;;1.23;1.10;;;23.10;48.10;;;;;;5093091;28;20031;-83
2022/08/08 11:09:52;;;;;;;3.45;1.75;;;22.80;48.10;;;;;;5091762;28;20233;-83
2022/08/08 11:12:17;;;;;;;3.90;0.90;;;23.10;47.90;;;;;;5091602;28;20024;-83
2022/08/08 11:14:52;;;;;;;3.33;1.30;;;23.20;47.10;;;;;;5092941;28;20025;-79
2022/08/08 11:17:23;;;;;;;3.13;1.15;;;23.30;45.60;;;;;;5091771;28;20470;-77
2022/08/08 11:19:51;;;;;;;1.27;0.83;;;23.20;46.20;;;;;;5092958;28;20382;-77
2022/08/08 11:22:23;;;;;;;1.60;0.80;;;23.30;46.90;;;;;;5091678;28;20024;-84
2022/08/08 11:24:50;;;;;;;1.10;0.70;;;23.30;46.50;;;;;;5091569;28;20110;-84
2022/08/08 11:27:16;;;;;;;2.45;0.95;;;23.20;46.60;;;;;;5092875;28;20107;-78
2022/08/08 11:29:45;;;;;;;2.97;0.90;;;22.90;47.40;;;;;;5095575;28;20115;-77
2022/08/08 11:32:12;;;;;;;2.08;0.80;;;22.90;47.60;;;;;;5095604;28;20032;-77
2022/08/08 11:34:41;;;;;;;2.15;0.85;;;22.90;48.30;;;;;;5095337;28;20402;-77
2022/08/08 11:37:07;;;;;;;2.35;0.93;;;23.10;47.50;;;;;;5095359;28;20020;-83
2022/08/08 11:39:35;;;;;;;3.20;1.00;;;23.10;48.50;;;;;;5095450;28;20044;-83
2022/08/08 11:42:01;;;;;;;1.35;0.93;;;23.20;47.50;;;;;;5096509;28;20028;-84
2022/08/08 11:44:29;;;;;;;2.63;0.80;;;23.40;47.60;;;;;;5095305;28;20397;-82
2022/08/08 11:46:56;;;;;;;2.20;0.90;;;23.40;46.30;;;;;;5095237;28;20103;-83
2022/08/08 11:49:23;;;;;;;2.65;0.85;;;23.60;46.60;;;;;;5096548;28;20093;-83
2022/08/08 11:51:51;;;;;;;4.50;1.15;;;23.70;45.90;;;;;;5096235;28;20024;-77
2022/08/08 11:54:17;;;;;;;1.00;0.80;;;23.50;46.20;;;;;;5096297;28;20032;-77
2022/08/08 11:56:42;;;;;;;1.55;0.98;;;23.30;47.00;;;;;;5096411;28;20081;-78
2022/08/08 11:59:10;;;;;;;1.52;0.90;;;23.20;47.60;;;;;;5096325;28;20020;-82
2022/08/08 12:01:36;;;;;;;0.77;0.77;;;23.20;46.80;;;;;;5096302;28;20535;-77
2022/08/08 12:04:03;;;;;;;2.22;0.90;;;23.00;47.40;;;;;;5096088;28;20036;-84
2022/08/08 12:06:31;;;;;;;1.58;1.00;;;23.00;47.70;;;;;;5096189;28;20031;-83
2022/08/08 12:09:07;;;;;;;2.13;0.90;;;23.00;47.40;;;;;;5096086;28;20107;-77
2022/08/08 12:11:41;;;;;;;4.35;1.08;;;23.10;48.30;;;;;;5094822;28;20020;-77
2022/08/08 12:14:06;;;;;;;1.83;0.75;;;23.20;47.20;;;;;;5095882;28;20031;-83
2022/08/08 12:16:32;;;;;;;2.05;0.90;;;23.10;46.80;;;;;;5094552;28;20024;-83
2022/08/08 12:19:01;;;;;;;2.90;0.85;;;23.30;46.50;;;;;;5096137;28;20173;-84
2022/08/08 12:21:31;;;;;;;2.15;1.02;;;23.30;46.70;;;;;;5094522;28;20063;-77
2022/08/08 12:24:06;;;;;;;2.95;1.30;;;23.50;47.40;;;;;;5094403;28;20016;-84
2022/08/08 12:26:46;;;;;;;1.33;1.00;;;23.70;46.40;;;;;;5095704;28;20385;-83
2022/08/08 12:29:27;;;;;;;2.92;0.90;;;23.50;46.70;;;;;;5095761;28;20028;-84
2022/08/08 12:32:13;;;;;;;2.47;1.08;;;23.30;46.10;;;;;;5095570;28;20024;-84
2022/08/08 12:34:42;;;;;;;1.67;0.93;;;23.50;46.60;;;;;;5095608;28;20050;-83
2022/08/08 12:37:26;;;;;;;1.27;1.00;;;23.30;46.00;;;;;;5094246;28;20220;-77
2022/08/08 12:39:52;;;;;;;1.10;1.00;;;23.30;46.60;;;;;;5095551;28;20119;-77
2022/08/08 12:42:18;;;;;;;2.42;1.10;;;23.30;46.50;;;;;;5095356;28;20397;-77
2022/08/08 12:44:45;;;;;;;4.60;1.23;;;23.30;46.70;;;;;;5094228;28;20119;-83
2022/08/08 12:47:11;;;;;;;1.42;1.13;;;23.10;46.60;;;;;;5095149;28;20020;-77
2022/08/08 12:49:38;;;;;;;1.25;1.02;;;23.30;46.30;;;;;;5095362;28;20500;-77
2022/08/08 12:52:06;;;;;;;2.05;1.30;;;23.40;46.80;;;;;;5095137;28;20512;-83
2022/08/08 12:54:35;;;;;;;2.97;1.00;;;23.50;46.90;;;;;;5093901;28;20149;-77
2022/08/08 12:57:15;;;;;;;2.22;1.10;;;23.40;47.00;;;;;;5095202;28;20020;-80
2022/08/08 12:59:53;;;;;;;1.92;1.33;;;23.40;46.80;;;;;;5094108;28;20020;-77
2022/08/08 13:02:29;;;;;;;2.92;1.20;;;23.20;46.00;;;;;;5094924;28;20058;-84
2022/08/08 13:05:00;;;;;;;1.60;1.40;;;23.50;46.70;;;;;;5093801;28;20028;-83
2022/08/08 13:07:34;;;;;;;1.20;0.95;;;23.60;46.60;;;;;;5094924;28;20082;-76
2022/08/08 13:10:03;;;;;;;1.75;0.93;;;23.60;47.00;;;;;;5094950;28;20097;-83
2022/08/08 13:12:41;;;;;;;2.08;0.80;;;23.70;47.20;;;;;;5094823;28;20038;-76
2022/08/08 13:15:10;;;;;;;1.02;1.02;;;23.80;46.70;;;;;;5094925;28;20043;-76
2022/08/08 13:17:37;;;;;;;3.95;0.90;;;23.70;46.00;;;;;;5093372;28;20024;-76
2022/08/08 13:20:10;;;;;;;2.30;0.73;;;23.60;46.10;;;;;;5094809;28;20016;-78
2022/08/08 13:22:36;;;;;;;4.40;1.42;;;23.60;46.60;;;;;;5094381;28;20027;-83
2022/08/08 13:25:03;;;;;;;1.58;0.88;;;23.70;46.10;;;;;;5094674;28;20023;-82